sensor_id;sensor_type;location;lat;lon;timestamp;P1;durP1;ratioP1;P2;durP2;ratioP2
21274;SDS011;36472;52.170;20.884;2023-02-21T00:02:57;2.33;;;1.75;;
21274;SDS011;36472;52.170;20.884;2023-02-21T00:05:44;3.42;;;1.70;;
21274;SDS011;36472;52.170;20.884;2023-02-21T00:08:31;4.40;;;2.25;;
21274;SDS011;36472;52.170;20.884;2023-02-21T00:11:17;2.53;;;1.50;;
21274;SDS011;36472;52.170;20.884;2023-02-21T00:14:03;1.40;;;1.17;;
21274;SDS011;36472;52.170;20.884;2023-02-21T00:16:51;2.20;;;1.40;;
21274;SDS011;36472;52.170;20.884;2023-02-21T00:19:38;2.75;;;1.48;;
21274;SDS011;36472;52.170;20.884;2023-02-21T00:22:25;1.60;;;0.93;;
21274;SDS011;36472;52.170;20.884;2023-02-21T00:25:11;1.75;;;1.10;;
21274;SDS011;36472;52.170;20.884;2023-02-21T00:27:59;1.83;;;1.00;;
21274;SDS011;36472;52.170;20.884;2023-02-21T00:30:46;2.17;;;1.10;;
21274;SDS011;36472;52.170;20.884;2023-02-21T00:33:35;1.40;;;1.13;;
21274;SDS011;36472;52.170;20.884;2023-02-21T00:36:22;1.67;;;1.10;;
21274;SDS011;36472;52.170;20.884;2023-02-21T00:39:08;1.30;;;1.10;;
21274;SDS011;36472;52.170;20.884;2023-02-21T00:41:55;1.40;;;1.02;;
21274;SDS011;36472;52.170;20.884;2023-02-21T00:44:41;1.65;;;1.40;;
21274;SDS011;36472;52.170;20.884;2023-02-21T00:47:28;1.48;;;1.30;;
21274;SDS011;36472;52.170;20.884;2023-02-21T00:50:15;1.75;;;1.45;;
21274;SDS011;36472;52.170;20.884;2023-02-21T00:53:03;2.13;;;1.67;;
21274;SDS011;36472;52.170;20.884;2023-02-21T00:55:49;1.52;;;1.10;;
21274;SDS011;36472;52.170;20.884;2023-02-21T00:58:36;1.75;;;1.00;;
21274;SDS011;36472;52.170;20.884;2023-02-21T01:01:23;1.67;;;1.30;;
21274;SDS011;36472;52.170;20.884;2023-02-21T01:04:09;4.10;;;1.42;;
21274;SDS011;36472;52.170;20.884;2023-02-21T01:06:57;2.35;;;1.20;;
21274;SDS011;36472;52.170;20.884;2023-02-21T01:09:43;2.40;;;1.10;;
21274;SDS011;36472;52.170;20.884;2023-02-21T01:12:30;2.08;;;1.20;;
21274;SDS011;36472;52.170;20.884;2023-02-21T01:15:16;1.98;;;1.48;;
21274;SDS011;36472;52.170;20.884;2023-02-21T01:18:03;1.88;;;1.20;;
21274;SDS011;36472;52.170;20.884;2023-02-21T01:20:50;1.95;;;1.00;;
21274;SDS011;36472;52.170;20.884;2023-02-21T01:23:37;2.08;;;1.15;;
21274;SDS011;36472;52.170;20.884;2023-02-21T01:26:24;1.48;;;1.00;;
21274;SDS011;36472;52.170;20.884;2023-02-21T01:29:10;1.67;;;1.45;;
21274;SDS011;36472;52.170;20.884;2023-02-21T01:31:59;1.33;;;1.00;;
21274;SDS011;36472;52.170;20.884;2023-02-21T01:34:45;2.17;;;1.00;;
21274;SDS011;36472;52.170;20.884;2023-02-21T01:37:32;2.13;;;0.80;;
21274;SDS011;36472;52.170;20.884;2023-02-21T01:40:19;1.70;;;0.80;;
21274;SDS011;36472;52.170;20.884;2023-02-21T01:43:12;1.60;;;1.00;;
21274;SDS011;36472;52.170;20.884;2023-02-21T01:46:00;2.45;;;0.80;;
21274;SDS011;36472;52.170;20.884;2023-02-21T01:48:46;1.48;;;0.95;;
21274;SDS011;36472;52.170;20.884;2023-02-21T01:51:40;1.95;;;1.00;;
21274;SDS011;36472;52.170;20.884;2023-02-21T01:54:29;3.20;;;1.45;;
21274;SDS011;36472;52.170;20.884;2023-02-21T01:57:22;1.90;;;1.00;;
21274;SDS011;36472;52.170;20.884;2023-02-21T02:00:10;2.05;;;1.10;;
21274;SDS011;36472;52.170;20.884;2023-02-21T02:03:00;2.65;;;1.10;;
21274;SDS011;36472;52.170;20.884;2023-02-21T02:05:50;1.23;;;0.90;;
21274;SDS011;36472;52.170;20.884;2023-02-21T02:08:40;2.70;;;1.17;;
21274;SDS011;36472;52.170;20.884;2023-02-21T02:11:50;2.15;;;1.30;;
21274;SDS011;36472;52.170;20.884;2023-02-21T02:14:57;1.20;;;1.00;;
21274;SDS011;36472;52.170;20.884;2023-02-21T02:17:57;1.27;;;1.00;;
21274;SDS011;36472;52.170;20.884;2023-02-21T02:27:16;4.40;;;0.90;;
21274;SDS011;36472;52.170;20.884;2023-02-21T02:33:54;2.25;;;0.90;;
21274;SDS011;36472;52.170;20.884;2023-02-21T02:37:04;3.17;;;1.00;;
21274;SDS011;36472;52.170;20.884;2023-02-21T02:39:46;3.80;;;1.10;;
21274;SDS011;36472;52.170;20.884;2023-02-21T02:42:30;3.78;;;1.00;;
21274;SDS011;36472;52.170;20.884;2023-02-21T02:45:12;2.20;;;1.05;;
21274;SDS011;36472;52.170;20.884;2023-02-21T02:47:51;4.28;;;1.08;;
21274;SDS011;36472;52.170;20.884;2023-02-21T02:50:29;1.40;;;1.10;;
21274;SDS011;36472;52.170;20.884;2023-02-21T02:53:03;3.83;;;0.90;;
21274;SDS011;36472;52.170;20.884;2023-02-21T02:55:38;1.83;;;0.70;;
21274;SDS011;36472;52.170;20.884;2023-02-21T02:58:15;3.67;;;1.00;;
21274;SDS011;36472;52.170;20.884;2023-02-21T03:01:01;1.50;;;0.90;;
21274;SDS011;36472;52.170;20.884;2023-02-21T03:04:13;2.60;;;1.00;;
21274;SDS011;36472;52.170;20.884;2023-02-21T03:07:20;5.22;;;1.10;;
21274;SDS011;36472;52.170;20.884;2023-02-21T03:10:09;1.55;;;1.10;;
21274;SDS011;36472;52.170;20.884;2023-02-21T03:12:50;3.53;;;1.00;;
21274;SDS011;36472;52.170;20.884;2023-02-21T03:15:32;2.80;;;1.40;;
21274;SDS011;36472;52.170;20.884;2023-02-21T03:18:12;3.65;;;1.38;;
21274;SDS011;36472;52.170;20.884;2023-02-21T03:20:49;1.92;;;0.70;;
21274;SDS011;36472;52.170;20.884;2023-02-21T03:23:24;5.30;;;1.00;;
21274;SDS011;36472;52.170;20.884;2023-02-21T03:26:00;3.10;;;0.90;;
21274;SDS011;36472;52.170;20.884;2023-02-21T03:28:39;2.75;;;1.00;;
21274;SDS011;36472;52.170;20.884;2023-02-21T03:31:09;3.83;;;1.25;;
21274;SDS011;36472;52.170;20.884;2023-02-21T03:33:43;2.95;;;0.95;;
21274;SDS011;36472;52.170;20.884;2023-02-21T03:36:13;3.22;;;1.20;;
21274;SDS011;36472;52.170;20.884;2023-02-21T03:38:43;5.78;;;1.30;;
21274;SDS011;36472;52.170;20.884;2023-02-21T03:41:13;2.80;;;1.45;;
21274;SDS011;36472;52.170;20.884;2023-02-21T03:43:43;3.60;;;0.80;;
21274;SDS011;36472;52.170;20.884;2023-02-21T03:46:12;4.75;;;1.30;;
21274;SDS011;36472;52.170;20.884;2023-02-21T03:48:41;1.67;;;1.00;;
21274;SDS011;36472;52.170;20.884;2023-02-21T03:51:21;5.90;;;1.63;;
21274;SDS011;36472;52.170;20.884;2023-02-21T03:53:50;3.75;;;1.25;;
21274;SDS011;36472;52.170;20.884;2023-02-21T03:56:25;6.10;;;1.50;;
21274;SDS011;36472;52.170;20.884;2023-02-21T03:59:33;2.53;;;1.10;;
21274;SDS011;36472;52.170;20.884;2023-02-21T04:02:03;5.72;;;1.35;;
21274;SDS011;36472;52.170;20.884;2023-02-21T04:04:33;3.00;;;1.23;;
21274;SDS011;36472;52.170;20.884;2023-02-21T04:07:07;4.93;;;1.60;;
21274;SDS011;36472;52.170;20.884;2023-02-21T04:09:38;4.70;;;1.75;;
21274;SDS011;36472;52.170;20.884;2023-02-21T04:12:11;4.97;;;1.90;;
21274;SDS011;36472;52.170;20.884;2023-02-21T04:14:40;4.45;;;1.13;;
21274;SDS011;36472;52.170;20.884;2023-02-21T04:17:10;6.00;;;1.88;;
21274;SDS011;36472;52.170;20.884;2023-02-21T04:19:39;4.80;;;1.90;;
21274;SDS011;36472;52.170;20.884;2023-02-21T04:22:09;4.75;;;1.60;;
21274;SDS011;36472;52.170;20.884;2023-02-21T04:24:38;6.68;;;1.85;;
21274;SDS011;36472;52.170;20.884;2023-02-21T04:27:09;5.90;;;1.90;;
21274;SDS011;36472;52.170;20.884;2023-02-21T04:29:43;7.93;;;2.05;;
21274;SDS011;36472;52.170;20.884;2023-02-21T04:32:13;7.30;;;1.45;;
21274;SDS011;36472;52.170;20.884;2023-02-21T04:34:42;6.90;;;1.50;;
21274;SDS011;36472;52.170;20.884;2023-02-21T04:37:12;5.07;;;1.65;;
21274;SDS011;36472;52.170;20.884;2023-02-21T04:39:42;5.43;;;1.65;;
21274;SDS011;36472;52.170;20.884;2023-02-21T04:42:11;6.80;;;1.73;;
21274;SDS011;36472;52.170;20.884;2023-02-21T04:44:40;5.55;;;1.75;;
21274;SDS011;36472;52.170;20.884;2023-02-21T04:47:25;7.05;;;1.63;;
21274;SDS011;36472;52.170;20.884;2023-02-21T04:49:54;7.43;;;1.58;;
21274;SDS011;36472;52.170;20.884;2023-02-21T04:52:24;5.28;;;1.95;;
21274;SDS011;36472;52.170;20.884;2023-02-21T04:54:53;8.40;;;1.83;;
21274;SDS011;36472;52.170;20.884;2023-02-21T04:57:23;6.70;;;1.83;;
21274;SDS011;36472;52.170;20.884;2023-02-21T04:59:57;5.97;;;1.40;;
21274;SDS011;36472;52.170;20.884;2023-02-21T05:02:27;11.75;;;2.35;;
21274;SDS011;36472;52.170;20.884;2023-02-21T05:04:56;5.45;;;1.63;;
21274;SDS011;36472;52.170;20.884;2023-02-21T05:07:25;7.20;;;1.92;;
21274;SDS011;36472;52.170;20.884;2023-02-21T05:09:54;5.93;;;1.40;;
21274;SDS011;36472;52.170;20.884;2023-02-21T05:12:23;8.43;;;2.58;;
21274;SDS011;36472;52.170;20.884;2023-02-21T05:14:52;5.70;;;1.75;;
21274;SDS011;36472;52.170;20.884;2023-02-21T05:17:22;7.60;;;1.80;;
21274;SDS011;36472;52.170;20.884;2023-02-21T05:19:53;6.43;;;1.73;;
21274;SDS011;36472;52.170;20.884;2023-02-21T05:22:22;5.78;;;1.90;;
21274;SDS011;36472;52.170;20.884;2023-02-21T05:24:51;6.78;;;1.85;;
21274;SDS011;36472;52.170;20.884;2023-02-21T05:27:21;6.00;;;1.88;;
21274;SDS011;36472;52.170;20.884;2023-02-21T05:29:51;6.70;;;1.60;;
21274;SDS011;36472;52.170;20.884;2023-02-21T05:32:20;7.63;;;1.83;;
21274;SDS011;36472;52.170;20.884;2023-02-21T05:34:55;7.25;;;1.80;;
21274;SDS011;36472;52.170;20.884;2023-02-21T05:37:24;5.18;;;1.85;;
21274;SDS011;36472;52.170;20.884;2023-02-21T05:39:56;7.53;;;2.08;;
21274;SDS011;36472;52.170;20.884;2023-02-21T05:42:26;4.30;;;1.60;;
21274;SDS011;36472;52.170;20.884;2023-02-21T05:44:55;5.05;;;2.25;;
21274;SDS011;36472;52.170;20.884;2023-02-21T05:47:25;7.45;;;1.48;;
21274;SDS011;36472;52.170;20.884;2023-02-21T05:49:54;5.03;;;1.58;;
21274;SDS011;36472;52.170;20.884;2023-02-21T05:52:23;6.07;;;1.92;;
21274;SDS011;36472;52.170;20.884;2023-02-21T05:54:52;8.40;;;1.80;;
21274;SDS011;36472;52.170;20.884;2023-02-21T05:57:21;8.93;;;2.08;;
21274;SDS011;36472;52.170;20.884;2023-02-21T05:59:50;5.90;;;2.17;;
21274;SDS011;36472;52.170;20.884;2023-02-21T06:02:19;7.53;;;1.92;;
21274;SDS011;36472;52.170;20.884;2023-02-21T06:04:49;6.43;;;1.95;;
21274;SDS011;36472;52.170;20.884;2023-02-21T06:07:18;9.05;;;2.00;;
21274;SDS011;36472;52.170;20.884;2023-02-21T06:09:47;8.27;;;2.25;;
21274;SDS011;36472;52.170;20.884;2023-02-21T06:12:16;5.80;;;2.30;;
21274;SDS011;36472;52.170;20.884;2023-02-21T06:14:45;7.85;;;2.47;;
21274;SDS011;36472;52.170;20.884;2023-02-21T06:17:14;8.35;;;2.38;;
21274;SDS011;36472;52.170;20.884;2023-02-21T06:19:43;8.77;;;2.50;;
21274;SDS011;36472;52.170;20.884;2023-02-21T06:22:13;9.60;;;2.33;;
21274;SDS011;36472;52.170;20.884;2023-02-21T06:24:43;9.10;;;2.05;;
21274;SDS011;36472;52.170;20.884;2023-02-21T06:27:12;8.55;;;2.22;;
21274;SDS011;36472;52.170;20.884;2023-02-21T06:29:41;10.63;;;2.17;;
21274;SDS011;36472;52.170;20.884;2023-02-21T06:32:10;7.28;;;1.83;;
21274;SDS011;36472;52.170;20.884;2023-02-21T06:34:39;6.57;;;2.22;;
21274;SDS011;36472;52.170;20.884;2023-02-21T06:37:10;9.77;;;2.20;;
21274;SDS011;36472;52.170;20.884;2023-02-21T06:39:40;6.68;;;2.13;;
21274;SDS011;36472;52.170;20.884;2023-02-21T06:42:10;4.60;;;2.00;;
21274;SDS011;36472;52.170;20.884;2023-02-21T06:44:41;9.65;;;2.40;;
21274;SDS011;36472;52.170;20.884;2023-02-21T06:47:11;8.45;;;2.30;;
21274;SDS011;36472;52.170;20.884;2023-02-21T06:49:40;8.75;;;2.50;;
21274;SDS011;36472;52.170;20.884;2023-02-21T06:52:10;7.80;;;2.30;;
21274;SDS011;36472;52.170;20.884;2023-02-21T06:54:40;11.52;;;2.53;;
21274;SDS011;36472;52.170;20.884;2023-02-21T06:57:09;10.30;;;2.72;;
21274;SDS011;36472;52.170;20.884;2023-02-21T06:59:38;10.57;;;2.47;;
21274;SDS011;36472;52.170;20.884;2023-02-21T07:02:07;7.68;;;2.25;;
21274;SDS011;36472;52.170;20.884;2023-02-21T07:04:44;8.02;;;2.20;;
21274;SDS011;36472;52.170;20.884;2023-02-21T07:07:13;10.95;;;3.15;;
21274;SDS011;36472;52.170;20.884;2023-02-21T07:09:44;9.27;;;2.65;;
21274;SDS011;36472;52.170;20.884;2023-02-21T07:12:13;7.30;;;2.60;;
21274;SDS011;36472;52.170;20.884;2023-02-21T07:14:42;7.43;;;2.17;;
21274;SDS011;36472;52.170;20.884;2023-02-21T07:17:11;7.05;;;2.15;;
21274;SDS011;36472;52.170;20.884;2023-02-21T07:19:40;8.93;;;2.45;;
21274;SDS011;36472;52.170;20.884;2023-02-21T07:22:09;9.07;;;2.22;;
21274;SDS011;36472;52.170;20.884;2023-02-21T07:24:38;5.18;;;2.00;;
21274;SDS011;36472;52.170;20.884;2023-02-21T07:27:09;6.35;;;2.25;;
21274;SDS011;36472;52.170;20.884;2023-02-21T07:29:37;10.07;;;2.42;;
21274;SDS011;36472;52.170;20.884;2023-02-21T07:32:07;6.30;;;2.10;;
21274;SDS011;36472;52.170;20.884;2023-02-21T07:34:36;8.32;;;2.08;;
21274;SDS011;36472;52.170;20.884;2023-02-21T07:37:05;11.32;;;2.53;;
21274;SDS011;36472;52.170;20.884;2023-02-21T07:39:34;10.10;;;2.78;;
21274;SDS011;36472;52.170;20.884;2023-02-21T07:42:03;9.52;;;2.58;;
21274;SDS011;36472;52.170;20.884;2023-02-21T07:44:35;9.98;;;2.13;;
21274;SDS011;36472;52.170;20.884;2023-02-21T07:47:04;6.93;;;2.30;;
21274;SDS011;36472;52.170;20.884;2023-02-21T07:49:35;6.10;;;2.33;;
21274;SDS011;36472;52.170;20.884;2023-02-21T07:52:06;8.60;;;2.60;;
21274;SDS011;36472;52.170;20.884;2023-02-21T07:54:35;5.80;;;2.20;;
21274;SDS011;36472;52.170;20.884;2023-02-21T07:57:04;8.07;;;2.53;;
21274;SDS011;36472;52.170;20.884;2023-02-21T07:59:33;11.48;;;2.60;;
21274;SDS011;36472;52.170;20.884;2023-02-21T08:02:03;8.10;;;2.33;;
21274;SDS011;36472;52.170;20.884;2023-02-21T08:04:32;8.95;;;2.58;;
21274;SDS011;36472;52.170;20.884;2023-02-21T08:07:03;7.70;;;2.50;;
21274;SDS011;36472;52.170;20.884;2023-02-21T08:09:32;7.22;;;2.35;;
21274;SDS011;36472;52.170;20.884;2023-02-21T08:12:02;6.40;;;2.47;;
21274;SDS011;36472;52.170;20.884;2023-02-21T08:14:34;11.85;;;2.47;;
21274;SDS011;36472;52.170;20.884;2023-02-21T08:17:04;13.02;;;2.97;;
21274;SDS011;36472;52.170;20.884;2023-02-21T08:19:32;14.15;;;2.78;;
21274;SDS011;36472;52.170;20.884;2023-02-21T08:22:01;6.25;;;2.40;;
21274;SDS011;36472;52.170;20.884;2023-02-21T08:24:30;7.38;;;2.60;;
21274;SDS011;36472;52.170;20.884;2023-02-21T08:26:59;7.50;;;2.72;;
21274;SDS011;36472;52.170;20.884;2023-02-21T08:29:28;9.13;;;2.72;;
21274;SDS011;36472;52.170;20.884;2023-02-21T08:31:58;8.35;;;2.70;;
21274;SDS011;36472;52.170;20.884;2023-02-21T08:34:27;9.85;;;2.80;;
21274;SDS011;36472;52.170;20.884;2023-02-21T08:36:57;10.02;;;3.08;;
21274;SDS011;36472;52.170;20.884;2023-02-21T08:39:25;9.60;;;3.13;;
21274;SDS011;36472;52.170;20.884;2023-02-21T08:41:56;10.07;;;2.88;;
21274;SDS011;36472;52.170;20.884;2023-02-21T08:44:25;8.75;;;3.45;;
21274;SDS011;36472;52.170;20.884;2023-02-21T08:46:54;8.52;;;3.22;;
21274;SDS011;36472;52.170;20.884;2023-02-21T08:49:24;12.52;;;3.20;;
21274;SDS011;36472;52.170;20.884;2023-02-21T08:51:53;11.00;;;3.25;;
21274;SDS011;36472;52.170;20.884;2023-02-21T08:54:22;7.07;;;2.88;;
21274;SDS011;36472;52.170;20.884;2023-02-21T08:56:51;8.68;;;3.30;;
21274;SDS011;36472;52.170;20.884;2023-02-21T08:59:21;10.65;;;3.00;;
21274;SDS011;36472;52.170;20.884;2023-02-21T09:01:50;10.25;;;2.58;;
21274;SDS011;36472;52.170;20.884;2023-02-21T09:04:19;9.45;;;2.70;;
21274;SDS011;36472;52.170;20.884;2023-02-21T09:06:52;7.78;;;2.55;;
21274;SDS011;36472;52.170;20.884;2023-02-21T09:09:21;10.82;;;3.20;;
21274;SDS011;36472;52.170;20.884;2023-02-21T09:11:50;10.75;;;2.80;;
21274;SDS011;36472;52.170;20.884;2023-02-21T09:14:19;10.23;;;2.78;;
21274;SDS011;36472;52.170;20.884;2023-02-21T09:16:48;7.97;;;2.88;;
21274;SDS011;36472;52.170;20.884;2023-02-21T09:19:17;11.90;;;3.50;;
21274;SDS011;36472;52.170;20.884;2023-02-21T09:21:47;9.88;;;2.83;;
21274;SDS011;36472;52.170;20.884;2023-02-21T09:24:23;10.63;;;3.00;;
21274;SDS011;36472;52.170;20.884;2023-02-21T09:26:54;11.05;;;3.33;;
21274;SDS011;36472;52.170;20.884;2023-02-21T09:29:25;11.50;;;3.22;;
21274;SDS011;36472;52.170;20.884;2023-02-21T09:32:10;7.57;;;2.78;;
21274;SDS011;36472;52.170;20.884;2023-02-21T09:34:38;9.95;;;3.10;;
21274;SDS011;36472;52.170;20.884;2023-02-21T09:37:07;6.88;;;2.75;;
21274;SDS011;36472;52.170;20.884;2023-02-21T09:39:38;13.15;;;3.33;;
21274;SDS011;36472;52.170;20.884;2023-02-21T09:42:08;13.25;;;3.20;;
21274;SDS011;36472;52.170;20.884;2023-02-21T09:44:43;10.95;;;3.50;;
21274;SDS011;36472;52.170;20.884;2023-02-21T09:47:16;10.02;;;3.47;;
21274;SDS011;36472;52.170;20.884;2023-02-21T09:49:57;11.48;;;3.17;;
21274;SDS011;36472;52.170;20.884;2023-02-21T09:52:32;8.82;;;3.20;;
21274;SDS011;36472;52.170;20.884;2023-02-21T09:55:06;9.48;;;3.38;;
21274;SDS011;36472;52.170;20.884;2023-02-21T09:57:47;8.48;;;3.03;;
21274;SDS011;36472;52.170;20.884;2023-02-21T10:00:17;8.93;;;2.90;;
21274;SDS011;36472;52.170;20.884;2023-02-21T10:02:58;8.48;;;3.17;;
21274;SDS011;36472;52.170;20.884;2023-02-21T10:05:59;12.02;;;2.65;;
21274;SDS011;36472;52.170;20.884;2023-02-21T10:08:40;12.52;;;2.45;;
21274;SDS011;36472;52.170;20.884;2023-02-21T10:14:26;7.95;;;2.58;;
21274;SDS011;36472;52.170;20.884;2023-02-21T10:17:11;10.48;;;2.60;;
21274;SDS011;36472;52.170;20.884;2023-02-21T10:19:49;14.65;;;2.83;;
21274;SDS011;36472;52.170;20.884;2023-02-21T10:22:27;8.95;;;3.20;;
21274;SDS011;36472;52.170;20.884;2023-02-21T10:25:06;10.77;;;3.03;;
21274;SDS011;36472;52.170;20.884;2023-02-21T10:27:51;10.32;;;2.80;;
21274;SDS011;36472;52.170;20.884;2023-02-21T10:30:25;8.10;;;2.42;;
21274;SDS011;36472;52.170;20.884;2023-02-21T10:33:01;10.02;;;3.42;;
21274;SDS011;36472;52.170;20.884;2023-02-21T10:35:32;9.00;;;2.60;;
21274;SDS011;36472;52.170;20.884;2023-02-21T10:38:02;12.88;;;3.10;;
21274;SDS011;36472;52.170;20.884;2023-02-21T10:40:39;7.40;;;2.92;;
21274;SDS011;36472;52.170;20.884;2023-02-21T10:43:15;8.73;;;3.08;;
21274;SDS011;36472;52.170;20.884;2023-02-21T10:45:52;8.73;;;3.00;;
21274;SDS011;36472;52.170;20.884;2023-02-21T10:48:27;8.38;;;2.88;;
21274;SDS011;36472;52.170;20.884;2023-02-21T10:51:04;6.18;;;2.22;;
21274;SDS011;36472;52.170;20.884;2023-02-21T10:53:36;9.77;;;2.80;;
21274;SDS011;36472;52.170;20.884;2023-02-21T10:56:23;8.27;;;2.53;;
21274;SDS011;36472;52.170;20.884;2023-02-21T10:58:58;9.55;;;3.28;;
21274;SDS011;36472;52.170;20.884;2023-02-21T11:01:33;6.78;;;2.58;;
21274;SDS011;36472;52.170;20.884;2023-02-21T11:04:21;11.57;;;1.90;;
21274;SDS011;36472;52.170;20.884;2023-02-21T11:06:58;6.63;;;1.85;;
21274;SDS011;36472;52.170;20.884;2023-02-21T11:09:37;8.68;;;2.20;;
21274;SDS011;36472;52.170;20.884;2023-02-21T11:12:19;5.10;;;1.92;;
21274;SDS011;36472;52.170;20.884;2023-02-21T11:18:01;8.88;;;2.28;;
21274;SDS011;36472;52.170;20.884;2023-02-21T11:20:33;7.15;;;2.50;;
21274;SDS011;36472;52.170;20.884;2023-02-21T11:23:03;4.88;;;2.38;;
21274;SDS011;36472;52.170;20.884;2023-02-21T11:25:44;6.40;;;2.40;;
21274;SDS011;36472;52.170;20.884;2023-02-21T11:28:17;6.25;;;2.28;;
21274;SDS011;36472;52.170;20.884;2023-02-21T11:30:50;8.05;;;2.88;;
21274;SDS011;36472;52.170;20.884;2023-02-21T11:33:37;8.98;;;2.70;;
21274;SDS011;36472;52.170;20.884;2023-02-21T11:36:12;8.57;;;3.47;;
21274;SDS011;36472;52.170;20.884;2023-02-21T11:38:58;8.48;;;2.90;;
21274;SDS011;36472;52.170;20.884;2023-02-21T11:41:34;8.07;;;2.80;;
21274;SDS011;36472;52.170;20.884;2023-02-21T11:44:21;14.90;;;5.30;;
21274;SDS011;36472;52.170;20.884;2023-02-21T11:46:56;10.48;;;4.53;;
21274;SDS011;36472;52.170;20.884;2023-02-21T11:49:38;7.00;;;2.53;;
21274;SDS011;36472;52.170;20.884;2023-02-21T11:52:21;6.43;;;2.58;;
21274;SDS011;36472;52.170;20.884;2023-02-21T11:54:58;6.20;;;1.98;;
21274;SDS011;36472;52.170;20.884;2023-02-21T11:57:29;7.28;;;2.08;;
21274;SDS011;36472;52.170;20.884;2023-02-21T12:00:11;7.03;;;1.85;;
21274;SDS011;36472;52.170;20.884;2023-02-21T12:03:07;9.20;;;2.13;;
21274;SDS011;36472;52.170;20.884;2023-02-21T12:06:20;6.57;;;2.40;;
21274;SDS011;36472;52.170;20.884;2023-02-21T12:09:01;8.32;;;2.50;;
21274;SDS011;36472;52.170;20.884;2023-02-21T12:11:41;7.70;;;2.60;;
21274;SDS011;36472;52.170;20.884;2023-02-21T12:14:25;8.95;;;2.55;;
21274;SDS011;36472;52.170;20.884;2023-02-21T12:17:12;7.55;;;2.40;;
21274;SDS011;36472;52.170;20.884;2023-02-21T12:20:14;8.90;;;2.53;;
21274;SDS011;36472;52.170;20.884;2023-02-21T12:23:21;6.90;;;2.05;;
21274;SDS011;36472;52.170;20.884;2023-02-21T12:26:07;4.80;;;1.75;;
21274;SDS011;36472;52.170;20.884;2023-02-21T17:11:14;18.02;;;6.18;;
21274;SDS011;36472;52.170;20.884;2023-02-21T17:13:44;19.70;;;7.32;;
21274;SDS011;36472;52.170;20.884;2023-02-21T17:16:13;16.48;;;6.75;;
21274;SDS011;36472;52.170;20.884;2023-02-21T17:18:43;17.35;;;7.05;;
21274;SDS011;36472;52.170;20.884;2023-02-21T17:21:12;18.65;;;6.85;;
21274;SDS011;36472;52.170;20.884;2023-02-21T17:23:42;20.90;;;6.50;;
21274;SDS011;36472;52.170;20.884;2023-02-21T17:26:10;24.08;;;7.07;;
21274;SDS011;36472;52.170;20.884;2023-02-21T17:28:41;24.38;;;7.78;;
21274;SDS011;36472;52.170;20.884;2023-02-21T17:31:13;19.52;;;6.57;;
21274;SDS011;36472;52.170;20.884;2023-02-21T17:33:45;19.55;;;6.80;;
21274;SDS011;36472;52.170;20.884;2023-02-21T17:36:14;19.70;;;6.25;;
21274;SDS011;36472;52.170;20.884;2023-02-21T17:38:44;21.65;;;6.68;;
21274;SDS011;36472;52.170;20.884;2023-02-21T17:41:14;23.85;;;7.60;;
21274;SDS011;36472;52.170;20.884;2023-02-21T17:43:45;20.92;;;7.15;;
21274;SDS011;36472;52.170;20.884;2023-02-21T17:46:15;26.42;;;7.30;;
21274;SDS011;36472;52.170;20.884;2023-02-21T17:48:47;23.38;;;7.10;;
21274;SDS011;36472;52.170;20.884;2023-02-21T17:51:17;18.88;;;6.63;;
21274;SDS011;36472;52.170;20.884;2023-02-21T17:53:50;23.98;;;7.65;;
21274;SDS011;36472;52.170;20.884;2023-02-21T17:56:20;22.88;;;8.02;;
21274;SDS011;36472;52.170;20.884;2023-02-21T17:58:52;24.33;;;8.13;;
21274;SDS011;36472;52.170;20.884;2023-02-21T18:01:23;20.88;;;7.65;;
21274;SDS011;36472;52.170;20.884;2023-02-21T18:03:54;21.23;;;7.45;;
21274;SDS011;36472;52.170;20.884;2023-02-21T18:06:23;23.50;;;8.50;;
21274;SDS011;36472;52.170;20.884;2023-02-21T18:08:52;23.08;;;7.75;;
21274;SDS011;36472;52.170;20.884;2023-02-21T18:11:22;23.35;;;7.65;;
21274;SDS011;36472;52.170;20.884;2023-02-21T18:13:55;18.00;;;7.70;;
21274;SDS011;36472;52.170;20.884;2023-02-21T18:16:24;21.58;;;8.30;;
21274;SDS011;36472;52.170;20.884;2023-02-21T18:18:53;21.45;;;7.65;;
21274;SDS011;36472;52.170;20.884;2023-02-21T18:21:22;16.95;;;6.35;;
21274;SDS011;36472;52.170;20.884;2023-02-21T18:23:53;20.42;;;7.18;;
21274;SDS011;36472;52.170;20.884;2023-02-21T18:26:22;19.25;;;6.43;;
21274;SDS011;36472;52.170;20.884;2023-02-21T18:28:51;17.92;;;7.20;;
21274;SDS011;36472;52.170;20.884;2023-02-21T18:31:21;22.75;;;7.88;;
21274;SDS011;36472;52.170;20.884;2023-02-21T18:33:51;18.20;;;6.38;;
21274;SDS011;36472;52.170;20.884;2023-02-21T18:36:19;23.10;;;7.85;;
21274;SDS011;36472;52.170;20.884;2023-02-21T18:38:49;23.00;;;7.75;;
21274;SDS011;36472;52.170;20.884;2023-02-21T18:41:19;22.95;;;7.75;;
21274;SDS011;36472;52.170;20.884;2023-02-21T18:43:50;20.25;;;6.63;;
21274;SDS011;36472;52.170;20.884;2023-02-21T18:46:20;17.35;;;6.47;;
21274;SDS011;36472;52.170;20.884;2023-02-21T18:48:51;18.08;;;6.53;;
21274;SDS011;36472;52.170;20.884;2023-02-21T18:51:20;17.17;;;6.82;;
21274;SDS011;36472;52.170;20.884;2023-02-21T18:53:49;21.17;;;6.72;;
21274;SDS011;36472;52.170;20.884;2023-02-21T18:56:18;19.25;;;7.43;;
21274;SDS011;36472;52.170;20.884;2023-02-21T18:58:48;19.42;;;7.75;;
21274;SDS011;36472;52.170;20.884;2023-02-21T19:01:17;22.45;;;6.63;;
21274;SDS011;36472;52.170;20.884;2023-02-21T19:03:52;20.58;;;7.07;;
21274;SDS011;36472;52.170;20.884;2023-02-21T19:06:22;20.10;;;7.15;;
21274;SDS011;36472;52.170;20.884;2023-02-21T19:08:52;22.55;;;7.38;;
21274;SDS011;36472;52.170;20.884;2023-02-21T19:11:21;14.80;;;5.55;;
21274;SDS011;36472;52.170;20.884;2023-02-21T19:13:51;22.63;;;7.25;;
21274;SDS011;36472;52.170;20.884;2023-02-21T19:16:19;20.17;;;7.43;;
21274;SDS011;36472;52.170;20.884;2023-02-21T19:18:54;19.73;;;6.65;;
21274;SDS011;36472;52.170;20.884;2023-02-21T19:21:24;23.52;;;7.63;;
21274;SDS011;36472;52.170;20.884;2023-02-21T19:23:53;17.63;;;7.47;;
21274;SDS011;36472;52.170;20.884;2023-02-21T19:26:23;24.15;;;7.72;;
21274;SDS011;36472;52.170;20.884;2023-02-21T19:28:56;20.55;;;7.28;;
21274;SDS011;36472;52.170;20.884;2023-02-21T19:31:25;22.58;;;7.45;;
21274;SDS011;36472;52.170;20.884;2023-02-21T19:33:56;23.17;;;7.25;;
21274;SDS011;36472;52.170;20.884;2023-02-21T19:36:25;18.60;;;6.88;;
21274;SDS011;36472;52.170;20.884;2023-02-21T19:38:54;19.73;;;6.82;;
21274;SDS011;36472;52.170;20.884;2023-02-21T19:41:23;19.98;;;7.05;;
21274;SDS011;36472;52.170;20.884;2023-02-21T19:43:54;18.17;;;6.53;;
21274;SDS011;36472;52.170;20.884;2023-02-21T19:46:24;22.67;;;7.00;;
21274;SDS011;36472;52.170;20.884;2023-02-21T19:48:57;21.20;;;7.88;;
21274;SDS011;36472;52.170;20.884;2023-02-21T19:51:27;20.60;;;6.30;;
21274;SDS011;36472;52.170;20.884;2023-02-21T19:53:59;21.38;;;7.80;;
21274;SDS011;36472;52.170;20.884;2023-02-21T19:56:28;21.90;;;6.88;;
21274;SDS011;36472;52.170;20.884;2023-02-21T19:58:59;24.80;;;7.88;;
21274;SDS011;36472;52.170;20.884;2023-02-21T20:01:28;25.75;;;7.18;;
21274;SDS011;36472;52.170;20.884;2023-02-21T20:04:00;18.48;;;7.15;;
21274;SDS011;36472;52.170;20.884;2023-02-21T20:06:29;22.75;;;7.05;;
21274;SDS011;36472;52.170;20.884;2023-02-21T20:09:02;21.80;;;7.45;;
21274;SDS011;36472;52.170;20.884;2023-02-21T20:11:33;22.70;;;8.15;;
21274;SDS011;36472;52.170;20.884;2023-02-21T20:14:06;21.15;;;7.78;;
21274;SDS011;36472;52.170;20.884;2023-02-21T20:16:36;24.17;;;9.02;;
21274;SDS011;36472;52.170;20.884;2023-02-21T20:19:07;21.17;;;7.80;;